createdAt,value
2023-05-21T00:02:45.158Z,19.30
2023-05-21T00:07:48.303Z,19.17
2023-05-21T00:12:50.020Z,19.00
2023-05-21T00:17:52.047Z,19.07
2023-05-21T00:22:55.205Z,19.02
2023-05-21T00:27:56.959Z,19.00
2023-05-21T00:33:02.474Z,19.00
2023-05-21T00:38:07.529Z,18.96
2023-05-21T00:43:12.037Z,18.81
2023-05-21T00:48:14.895Z,18.79
2023-05-21T00:53:19.427Z,18.77
2023-05-21T00:58:21.308Z,18.74
2023-05-21T01:03:23.134Z,18.73
2023-05-21T01:08:27.154Z,18.62
2023-05-21T01:13:29.005Z,18.58
2023-05-21T01:18:35.025Z,18.61
2023-05-21T01:23:38.061Z,18.60
2023-05-21T01:28:39.920Z,18.55
2023-05-21T01:33:44.609Z,18.33
2023-05-21T01:38:50.004Z,18.42
2023-05-21T01:43:51.698Z,18.45
2023-05-21T01:48:53.438Z,18.27
2023-05-21T01:53:56.597Z,18.08
2023-05-21T01:58:59.571Z,18.11
2023-05-21T02:04:01.808Z,18.13
2023-05-21T02:09:05.066Z,18.13
2023-05-21T02:14:07.925Z,17.99
2023-05-21T02:19:10.546Z,17.97
2023-05-21T02:24:14.086Z,17.98
2023-05-21T02:29:15.916Z,17.89
2023-05-21T02:34:20.507Z,17.94
2023-05-21T02:39:23.666Z,17.87
2023-05-21T02:44:25.889Z,17.90
2023-05-21T02:49:27.613Z,17.85
2023-05-21T02:54:30.958Z,17.78
2023-05-21T02:59:32.807Z,17.69
2023-05-21T03:04:38.900Z,17.66
2023-05-21T03:09:42.391Z,17.60
2023-05-21T03:14:46.272Z,17.62
2023-05-21T03:19:49.144Z,17.61
2023-05-21T03:24:53.400Z,17.67
2023-05-21T03:29:55.796Z,17.63
2023-05-21T03:34:57.870Z,17.55
2023-05-21T03:40:00.961Z,17.51
2023-05-21T03:45:03.218Z,17.47
2023-05-21T03:50:34.012Z,17.42
2023-05-21T03:55:37.305Z,17.38
2023-05-21T04:00:39.258Z,17.54
2023-05-21T04:05:42.384Z,17.54
2023-05-21T04:10:45.654Z,17.56
2023-05-21T04:15:47.714Z,17.58
2023-05-21T04:20:50.481Z,17.53
2023-05-21T04:25:53.948Z,17.57
2023-05-21T04:30:59.373Z,17.75
2023-05-21T04:36:01.309Z,17.81
2023-05-21T04:41:04.716Z,17.85
2023-05-21T04:46:07.553Z,17.86
2023-05-21T04:51:09.526Z,18.03
2023-05-21T04:56:12.593Z,18.14
2023-05-21T05:01:14.754Z,18.22
2023-05-21T05:06:16.747Z,18.28
2023-05-21T05:11:19.820Z,18.36
2023-05-21T05:16:25.713Z,18.45
2023-05-21T05:21:27.977Z,18.60
2023-05-21T05:26:31.299Z,18.80
2023-05-21T05:31:33.218Z,18.84
2023-05-21T05:36:35.371Z,19.12
2023-05-21T05:41:39.694Z,19.31
2023-05-21T05:46:41.590Z,19.52
2023-05-21T05:51:43.360Z,19.82
2023-05-21T05:56:46.556Z,19.91
2023-05-21T06:01:48.396Z,20.07
2023-05-21T06:06:52.379Z,20.30
2023-05-21T06:11:55.639Z,20.41
2023-05-21T06:16:57.371Z,20.55
2023-05-21T06:22:00.870Z,20.79
2023-05-21T06:27:04.369Z,20.95
2023-05-21T06:32:07.762Z,21.17
2023-05-21T06:37:09.624Z,21.32
2023-05-21T06:42:12.701Z,21.30
2023-05-21T06:47:21.568Z,21.48
2023-05-21T06:52:24.376Z,21.41
2023-05-21T06:57:27.606Z,21.57
2023-05-21T07:02:29.582Z,21.92
2023-05-21T07:07:31.539Z,22.16
2023-05-21T07:12:35.760Z,22.42
2023-05-21T07:17:38.818Z,22.55
2023-05-21T07:22:41.489Z,22.77
2023-05-21T07:27:45.567Z,22.97
2023-05-21T07:32:47.344Z,23.11
2023-05-21T07:37:49.418Z,23.28
2023-05-21T07:42:52.545Z,23.54
2023-05-21T07:47:57.051Z,23.80
2023-05-21T07:52:59.910Z,24.05
2023-05-21T07:58:03.177Z,23.76
2023-05-21T08:03:07.978Z,23.76
2023-05-21T08:08:11.580Z,23.82
2023-05-21T08:13:16.368Z,23.78
2023-05-21T08:18:18.492Z,23.92
2023-05-21T08:23:21.531Z,24.11
2023-05-21T08:28:29.933Z,24.45
2023-05-21T08:33:31.804Z,24.46
2023-05-21T08:38:34.027Z,24.81
2023-05-21T08:43:50.258Z,25.24
2023-05-21T08:48:55.081Z,25.56
2023-05-21T08:53:58.890Z,25.86
2023-05-21T08:59:02.039Z,26.04
2023-05-21T09:04:20.357Z,26.05
2023-05-21T09:09:28.294Z,26.05
2023-05-21T09:14:31.810Z,26.25
2023-05-21T09:20:14.870Z,26.45
2023-05-21T09:25:23.492Z,26.64
2023-05-21T09:30:30.027Z,26.51
2023-05-21T09:35:33.404Z,26.54
2023-05-21T09:40:35.706Z,26.69
2023-05-21T09:45:39.081Z,26.83
2023-05-21T09:50:40.988Z,26.99
2023-05-21T09:55:43.236Z,27.11
2023-05-21T10:00:46.299Z,27.34
2023-05-21T10:05:48.011Z,27.36
2023-05-21T10:10:49.699Z,27.51
2023-05-21T10:15:54.927Z,27.48
2023-05-21T10:20:56.717Z,27.84
2023-05-21T10:25:58.457Z,28.20
2023-05-21T10:31:01.616Z,28.05
2023-05-21T10:36:03.747Z,27.99
2023-05-21T10:41:06.707Z,28.03
2023-05-21T10:46:19.656Z,28.11
2023-05-21T10:51:23.748Z,28.14
2023-05-21T10:56:28.631Z,28.14
2023-05-21T11:01:33.933Z,28.10
2023-05-21T11:06:35.854Z,28.16
2023-05-21T11:11:43.890Z,28.10
2023-05-21T11:16:47.013Z,28.02
2023-05-21T11:21:50.646Z,28.09
2023-05-21T11:27:04.198Z,28.58
2023-05-21T11:32:09.186Z,29.10
2023-05-21T11:37:25.340Z,29.70
2023-05-21T11:42:31.105Z,30.20
2023-05-21T11:47:34.247Z,30.37
2023-05-21T11:52:36.017Z,30.57
2023-05-21T11:57:38.208Z,30.69
2023-05-21T12:02:44.354Z,30.72
2023-05-21T12:07:48.781Z,30.81
2023-05-21T12:12:56.621Z,30.72
2023-05-21T12:18:01.258Z,30.72
2023-05-21T12:23:03.084Z,30.72
2023-05-21T12:28:05.377Z,30.61
2023-05-21T12:33:08.485Z,30.55
2023-05-21T12:38:10.331Z,30.72
2023-05-21T12:43:12.122Z,30.84
2023-05-21T12:48:15.116Z,30.82
2023-05-21T12:53:16.835Z,30.79
2023-05-21T12:58:21.963Z,30.87
2023-05-21T13:03:25.659Z,30.92
2023-05-21T13:08:27.525Z,31.04
2023-05-21T13:13:29.258Z,31.00
2023-05-21T13:18:32.280Z,30.46
2023-05-21T13:23:34.033Z,30.32
2023-05-21T13:28:35.766Z,30.13
2023-05-21T13:33:38.964Z,29.88
2023-05-21T13:38:40.747Z,29.70
2023-05-21T13:43:42.590Z,29.54
2023-05-21T13:48:45.638Z,29.36
2023-05-21T13:53:47.484Z,29.10
2023-05-21T13:58:49.243Z,28.94
2023-05-21T14:03:52.314Z,28.96
2023-05-21T14:08:54.134Z,29.04
2023-05-21T14:13:56.139Z,29.02
2023-05-21T14:18:59.300Z,28.94
2023-05-21T14:24:01.125Z,28.76
2023-05-21T14:29:02.887Z,28.71
2023-05-21T14:34:08.948Z,28.81
2023-05-21T14:39:10.658Z,28.68
2023-05-21T14:44:12.425Z,28.71
2023-05-21T14:49:15.448Z,28.96
2023-05-21T14:54:17.211Z,28.95
2023-05-21T14:59:19.032Z,29.16
2023-05-21T15:04:22.180Z,29.17
2023-05-21T15:09:24.136Z,29.44
2023-05-21T15:14:25.892Z,29.39
2023-05-21T15:19:28.985Z,29.41
2023-05-21T15:24:30.792Z,29.39
2023-05-21T15:29:32.597Z,29.38
2023-05-21T15:34:35.811Z,29.41
2023-05-21T15:39:37.771Z,29.40
2023-05-21T15:44:39.541Z,29.36
2023-05-21T15:49:42.949Z,29.24
2023-05-21T15:54:44.714Z,29.18
2023-05-21T15:59:46.490Z,29.24
2023-05-21T16:04:51.675Z,29.22
2023-05-21T16:09:53.400Z,29.11
2023-05-21T16:14:55.229Z,29.04
2023-05-21T16:19:58.368Z,28.96
2023-05-21T16:25:00.154Z,28.97
2023-05-21T16:30:02.050Z,28.93
2023-05-21T16:35:06.561Z,28.94
2023-05-21T16:40:09.651Z,29.04
2023-05-21T16:45:19.376Z,29.14
2023-05-21T16:50:22.697Z,29.17
2023-05-21T16:55:24.514Z,29.30
2023-05-21T17:00:26.359Z,29.25
2023-05-21T17:05:29.513Z,29.19
2023-05-21T17:10:31.465Z,29.24
2023-05-21T17:15:33.285Z,29.35
2023-05-21T17:20:36.365Z,29.30
2023-05-21T17:25:38.242Z,29.36
2023-05-21T17:30:40.424Z,29.33
2023-05-21T17:35:43.509Z,29.30
2023-05-21T17:40:45.266Z,29.15
2023-05-21T17:45:47.026Z,29.13
2023-05-21T17:50:51.002Z,29.11
2023-05-21T17:55:53.191Z,29.09
2023-05-21T18:00:54.920Z,29.04
2023-05-21T18:05:58.056Z,28.92
2023-05-21T18:11:01.546Z,28.60
2023-05-21T18:16:03.349Z,28.57
2023-05-21T18:21:06.422Z,28.37
2023-05-21T18:26:08.180Z,28.16
2023-05-21T18:31:10.118Z,28.10
2023-05-21T18:36:13.156Z,27.99
2023-05-21T18:41:14.900Z,27.99
2023-05-21T18:46:16.688Z,27.86
2023-05-21T18:51:19.962Z,27.79
2023-05-21T18:56:21.959Z,27.62
2023-05-21T19:01:23.899Z,27.49
2023-05-21T19:06:27.678Z,27.19
2023-05-21T19:11:34.191Z,27.23
2023-05-21T19:16:36.119Z,27.19
2023-05-21T19:21:39.298Z,27.13
2023-05-21T19:26:41.055Z,27.07
2023-05-21T19:31:42.808Z,26.90
2023-05-21T19:36:53.516Z,26.54
2023-05-21T19:41:56.367Z,26.40
2023-05-21T19:46:58.925Z,26.35
2023-05-21T19:52:02.458Z,26.17
2023-05-21T19:57:04.737Z,26.06
2023-05-21T20:02:06.662Z,25.91
2023-05-21T20:07:10.228Z,25.79
2023-05-21T20:12:12.644Z,25.69
2023-05-21T20:17:14.800Z,25.53
2023-05-21T20:22:18.063Z,25.50
2023-05-21T20:27:19.962Z,25.53
2023-05-21T20:32:22.064Z,25.69
2023-05-21T20:37:26.375Z,25.68
2023-05-21T20:42:30.928Z,25.65
2023-05-21T20:47:33.814Z,25.70
2023-05-21T20:52:37.033Z,25.81
2023-05-21T20:57:38.836Z,25.73
2023-05-21T21:02:40.637Z,25.72
2023-05-21T21:07:45.576Z,25.70
2023-05-21T21:12:47.541Z,25.60
2023-05-21T21:17:49.498Z,25.51
2023-05-21T21:22:52.663Z,25.46
2023-05-21T21:27:54.780Z,25.46
2023-05-21T21:32:56.587Z,25.40
2023-05-21T21:37:59.727Z,25.23
2023-05-21T21:43:01.469Z,25.18
2023-05-21T21:48:03.273Z,25.26
2023-05-21T21:53:06.397Z,25.29
2023-05-21T21:58:08.136Z,25.08
2023-05-21T22:03:11.584Z,25.09
2023-05-21T22:08:16.178Z,25.09
2023-05-21T22:13:17.903Z,25.13
2023-05-21T22:18:31.916Z,25.14
2023-05-21T22:23:42.331Z,25.21
2023-05-21T22:28:44.100Z,25.21
2023-05-21T22:33:45.920Z,25.07
2023-05-21T22:38:48.988Z,25.07
2023-05-21T22:43:50.687Z,25.05
2023-05-21T22:48:53.866Z,25.01
2023-05-21T22:53:56.968Z,25.04
2023-05-21T22:58:59.514Z,24.87
2023-05-21T23:04:01.390Z,24.96
2023-05-21T23:09:04.894Z,24.85
2023-05-21T23:14:06.802Z,24.76
2023-05-21T23:19:08.570Z,24.75
2023-05-21T23:24:11.671Z,24.68
2023-05-21T23:29:13.481Z,24.61
2023-05-21T23:34:15.225Z,24.56
2023-05-21T23:39:18.465Z,24.45
2023-05-21T23:44:21.000Z,24.25
2023-05-21T23:49:22.707Z,24.28
2023-05-21T23:54:25.783Z,24.20
2023-05-21T23:59:27.541Z,24.20
